OIAM  Mahshahr Airport

Add Bookmark

Iran

Status IATA
Operational MRX
Latitude Longitude
30° 33' 22" N 49° 9' 6" E
30.556200 49.151901
Local (DST + 5) UTC (GMT + 4)
Aug 1, 2014 02:17 Aug 1, 2014 09:47
Sunrise-Sunset Local UTC
Begin Civil Twilight 06:04 01:34
Sunrise 06:30 02:00
Sunset 08:09 15:39
End Civil Twilight 08:35 16:05

Current Weather

METAR Observed VFR
OIAM 010900Z 17010KT CAVOK 39/24 Q0998 Fri, Aug 1, 2014 @ 09:00 UTC
(47 Minutes ago)
Visual Flight Rules

Decoded METAR

Wind Visibility Clouds Conditions
170° at 10 knots (19 kph) 10 km or more
  • Clear skies
  • No significant weather
Temperatures Readings Precipitation
Current Temp 39°C (102°F)
Dewpoint 24°C (75°F)
Heat Index 47°C (116°F)
Humidity 42%
Altimeter 29.47"Hg
Sea Level Pressure 998mb
Field Elevation 13.12'
None Recorded

Additional weather within a 92.6km radius of OIAM

Map ICAO Location
OIAG 54.4km E (067°)
OIAA 90.7km W (257°)

24 Hour Weather History

Loading
-

24 Hour Weather Graphs

Loading
-

CheckWX.com is intended as a tool to help pilots better visualize weather data. It is not intended as a substitute for an official weather briefing obtained from a Flight Service Station. CheckWX.com does not meet the FAA requirements for an official pre-flight weather briefing. Therefore, it's important that pilots still call and obtain an official FSS pre-flight weather briefing.